Lafayette, IN (47903)

6:26 PM EDT on September 21, 2014 (GMT -0400)
Prophet's Ridge | Change Station
CLOSE
Current Station
Personal Weather Station
Location: West Lafayette, IN
Elevation: 679 ft
Nearby Weather Stations

Elev 679 ft 40.48 °N, 86.89 °W | Updated 14 seconds ago

Overcast
Overcast
62.0 °F
Feels Like 62.0 °F
N
2.0
Wind Variable Wind from NNE
Gusts 4.0 mph

Today
High -- | Low -- °F
--% Chance of Precip.
Yesterday
High -- | Low -- °F
Precip. -- in
7:34 AM 7:46 PM
Waning Crescent, 5% visible
Pressure 29.98 in
Visibility 10.0 miles
Clouds Mostly Cloudy 4100 ft
Overcast 7000 ft
Dew Point 51 °F
Humidity 68%
Rainfall 0.07 in
Snow Depth Not available.
UV 0 out of 12
Pollen 5.40 out of 12
Air Quality Not available.
Flu Activity Not available.
METAR KLAF 212154Z 36008KT 10SM BKN041 OVC070 17/11 A2999 RMK AO2 SLP152 T01670106 $

More Conditions Fewer Conditions

Pressure 29.98 in
Visibility 10.0 miles
Clouds Mostly Cloudy 4100 ft
Overcast 7000 ft
Dew Point 51 °F
Humidity 68%
Rainfall 0.07 in
Snow Depth Not available.
UV 0 out of 12
Pollen 5.40 out of 12
Air Quality Not available.
Flu Activity Not available.
METAR KLAF 212154Z 36008KT 10SM BKN041 OVC070 17/11 A2999 RMK AO2 SLP152 T01670106 $

More Conditions Fewer Conditions

10-Day Weather Forecast

Almanac

Astronomy

Sep. 21, 2014 Rise Set
Actual Time 7:34 AM EDT 7:46 PM EDT
Civil Twilight 7:06 AM EDT 8:13 PM EDT
Nautical Twilight 6:34 AM EDT 8:45 PM EDT
Astronomical Twilight 6:02 AM EDT 9:17 PM EDT
Moon 5:06 AM EDT 6:22 PM EDT
Length of Visible Light 13h 06m
Length of Day
12h 12m
Tomorrow will be 2m 39s shorter.
Waning Crescent, 5% of the Moon is Illuminated
Today
Waning Crescent
Sep 24
New
Oct 1
First Quarter
Oct 8
Full
Oct 15
Last Quarter

Today's Extremes

State Highs State Lows

Community

WunderPhotos

Upload Photos

1,755,278 photos uploaded!

WunderBlogs® & News

Nearby

Snow Depth

Station Depth Elevation
No new snow has been reported.

Earthquake Activity

City Distance Mag. Time & Date
No recent earthquake activity has been reported nearby.
Minimum magnitude displayed is 2.5.

Coastal Water Temperatures

Place Temperature
No Stations Reporting

Nearby Weather Stations